Capitol Logistics 1132


EDDF
Frankfurt Rhein-Main
Frankfurt, DE
EBLG
Liège Airport
Liege, BE

Route Details

Aircraft Information
Primary: Boeing 737-800BCF
Backup: Not Available
Route Data
Distance: 125nm
Sched. Duration: 1h 00m
Avg. Duration: 0h 50m (-49m)
Times Flown: 6
Recm'd Route: Not Available
Planned Altitude: 24,000ft
Origin Wx: EDDF 030250Z 07003KT CAVOK 12/09 Q1008 NOSIG
Dest. Wx: EBLG 030250Z 25003KT CAVOK 14/08 Q1009 NOSIG
Notes:

Financial History
Total Freight: 203,282lbs
Average Load: 33,880lbs/flt
Fuel Used: 29,547lbs
Avg. Fuel Used: 4,925lbs/flt
Fuel Expense: $23,638
Avg. Fuel Expense: $3,940
Avg. Fuel Cost: $0.80/lbs
Total Gross Income: $426,206
Pilot Pay: $1,244
Total Expenses: $46,342
Total Revenue: $355,195
Average Revenue: $71,034.30